sensor_id;sensor_type;location;lat;lon;timestamp;temperature;humidity
66337;SHT30;53139;45.576;5.304;2023-03-12T00:04:25;9.45;98.53
66337;SHT30;53139;45.576;5.304;2023-03-12T00:07:39;9.44;98.59
66337;SHT30;53139;45.576;5.304;2023-03-12T00:10:55;9.38;98.76
66337;SHT30;53139;45.576;5.304;2023-03-12T00:14:07;9.38;98.84
66337;SHT30;53139;45.576;5.304;2023-03-12T00:17:39;9.41;98.90
66337;SHT30;53139;45.576;5.304;2023-03-12T00:21:10;9.38;98.79
66337;SHT30;53139;45.576;5.304;2023-03-12T00:24:48;9.34;99.22
66337;SHT30;53139;45.576;5.304;2023-03-12T00:28:21;9.40;98.81
66337;SHT30;53139;45.576;5.304;2023-03-12T00:31:53;9.38;98.51
66337;SHT30;53139;45.576;5.304;2023-03-12T00:35:21;9.45;98.83
66337;SHT30;53139;45.576;5.304;2023-03-12T00:38:47;9.41;99.00
66337;SHT30;53139;45.576;5.304;2023-03-12T00:42:18;9.37;99.30
66337;SHT30;53139;45.576;5.304;2023-03-12T00:45:45;9.34;99.54
66337;SHT30;53139;45.576;5.304;2023-03-12T00:49:10;9.34;99.04
66337;SHT30;53139;45.576;5.304;2023-03-12T00:52:37;9.33;98.60
66337;SHT30;53139;45.576;5.304;2023-03-12T00:56:10;9.33;98.69
66337;SHT30;53139;45.576;5.304;2023-03-12T00:59:39;9.30;98.68
66337;SHT30;53139;45.576;5.304;2023-03-12T01:03:08;9.28;98.75
66337;SHT30;53139;45.576;5.304;2023-03-12T01:06:40;9.27;98.71
66337;SHT30;53139;45.576;5.304;2023-03-12T01:10:16;9.28;98.83
66337;SHT30;53139;45.576;5.304;2023-03-12T01:13:55;9.30;98.62
66337;SHT30;53139;45.576;5.304;2023-03-12T01:17:29;9.31;98.33
66337;SHT30;53139;45.576;5.304;2023-03-12T01:20:59;9.38;97.51
66337;SHT30;53139;45.576;5.304;2023-03-12T01:24:35;9.35;98.08
66337;SHT30;53139;45.576;5.304;2023-03-12T01:28:11;9.30;98.46
66337;SHT30;53139;45.576;5.304;2023-03-12T01:31:49;9.30;98.27
66337;SHT30;53139;45.576;5.304;2023-03-12T01:35:34;9.26;98.78
66337;SHT30;53139;45.576;5.304;2023-03-12T01:38:53;9.23;99.58
66337;SHT30;53139;45.576;5.304;2023-03-12T01:41:59;9.14;99.57
66337;SHT30;53139;45.576;5.304;2023-03-12T01:52:16;9.13;99.99
66337;SHT30;53139;45.576;5.304;2023-03-12T01:55:19;9.16;99.99
66337;SHT30;53139;45.576;5.304;2023-03-12T01:58:19;9.13;99.99
66337;SHT30;53139;45.576;5.304;2023-03-12T02:01:21;9.10;99.99
66337;SHT30;53139;45.576;5.304;2023-03-12T02:04:24;9.05;99.99
66337;SHT30;53139;45.576;5.304;2023-03-12T02:07:26;9.14;99.99
66337;SHT30;53139;45.576;5.304;2023-03-12T02:10:27;9.09;99.99
66337;SHT30;53139;45.576;5.304;2023-03-12T02:13:30;9.12;99.99
66337;SHT30;53139;45.576;5.304;2023-03-12T02:16:32;9.12;99.99
66337;SHT30;53139;45.576;5.304;2023-03-12T02:26:16;9.14;99.99
66337;SHT30;53139;45.576;5.304;2023-03-12T02:29:18;9.07;99.99
66337;SHT30;53139;45.576;5.304;2023-03-12T02:32:23;9.09;99.99
66337;SHT30;53139;45.576;5.304;2023-03-12T02:35:25;9.09;99.99
66337;SHT30;53139;45.576;5.304;2023-03-12T02:41:38;9.07;99.99
66337;SHT30;53139;45.576;5.304;2023-03-12T02:44:41;9.06;99.99
66337;SHT30;53139;45.576;5.304;2023-03-12T02:47:43;9.10;99.99
66337;SHT30;53139;45.576;5.304;2023-03-12T02:50:44;9.05;99.99
66337;SHT30;53139;45.576;5.304;2023-03-12T02:53:48;9.05;99.99
66337;SHT30;53139;45.576;5.304;2023-03-12T02:56:54;9.00;99.99
66337;SHT30;53139;45.576;5.304;2023-03-12T02:59:55;8.96;99.99
66337;SHT30;53139;45.576;5.304;2023-03-12T03:02:57;8.96;99.99
66337;SHT30;53139;45.576;5.304;2023-03-12T03:05:58;8.95;99.99
66337;SHT30;53139;45.576;5.304;2023-03-12T03:08:58;8.90;99.99
66337;SHT30;53139;45.576;5.304;2023-03-12T03:11:59;8.90;99.99
66337;SHT30;53139;45.576;5.304;2023-03-12T03:15:00;8.89;99.99
66337;SHT30;53139;45.576;5.304;2023-03-12T03:18:01;8.89;99.99
66337;SHT30;53139;45.576;5.304;2023-03-12T03:21:05;8.99;99.99
66337;SHT30;53139;45.576;5.304;2023-03-12T03:24:06;8.99;99.99
66337;SHT30;53139;45.576;5.304;2023-03-12T03:27:07;9.00;99.99
66337;SHT30;53139;45.576;5.304;2023-03-12T03:30:11;9.00;99.99
66337;SHT30;53139;45.576;5.304;2023-03-12T03:33:12;9.02;99.99
66337;SHT30;53139;45.576;5.304;2023-03-12T03:36:13;9.02;99.99
66337;SHT30;53139;45.576;5.304;2023-03-12T03:39:14;9.05;99.99
66337;SHT30;53139;45.576;5.304;2023-03-12T03:42:14;9.09;99.99
66337;SHT30;53139;45.576;5.304;2023-03-12T03:45:15;9.10;99.99
66337;SHT30;53139;45.576;5.304;2023-03-12T03:48:17;9.03;99.99
66337;SHT30;53139;45.576;5.304;2023-03-12T03:51:17;9.10;99.99
66337;SHT30;53139;45.576;5.304;2023-03-12T03:54:17;9.07;99.99
66337;SHT30;53139;45.576;5.304;2023-03-12T03:57:18;9.03;99.99
66337;SHT30;53139;45.576;5.304;2023-03-12T04:00:19;9.05;99.99
66337;SHT30;53139;45.576;5.304;2023-03-12T04:03:20;9.06;99.99
66337;SHT30;53139;45.576;5.304;2023-03-12T04:06:20;9.03;99.99
66337;SHT30;53139;45.576;5.304;2023-03-12T04:09:21;9.00;99.99
66337;SHT30;53139;45.576;5.304;2023-03-12T04:12:22;9.03;99.99
66337;SHT30;53139;45.576;5.304;2023-03-12T04:15:25;8.95;99.99
66337;SHT30;53139;45.576;5.304;2023-03-12T04:18:25;8.97;99.99
66337;SHT30;53139;45.576;5.304;2023-03-12T04:21:26;8.95;99.99
66337;SHT30;53139;45.576;5.304;2023-03-12T04:24:27;8.97;99.99
66337;SHT30;53139;45.576;5.304;2023-03-12T04:27:27;8.96;99.99
66337;SHT30;53139;45.576;5.304;2023-03-12T04:30:28;8.97;99.99
66337;SHT30;53139;45.576;5.304;2023-03-12T04:33:32;8.88;99.99
66337;SHT30;53139;45.576;5.304;2023-03-12T04:36:33;8.88;99.99
66337;SHT30;53139;45.576;5.304;2023-03-12T04:39:33;8.82;99.99
66337;SHT30;53139;45.576;5.304;2023-03-12T04:42:34;8.89;99.99
66337;SHT30;53139;45.576;5.304;2023-03-12T04:45:36;8.85;99.99
66337;SHT30;53139;45.576;5.304;2023-03-12T04:48:38;8.88;99.99
66337;SHT30;53139;45.576;5.304;2023-03-12T04:51:39;8.90;99.99
66337;SHT30;53139;45.576;5.304;2023-03-12T04:54:39;8.82;99.99
66337;SHT30;53139;45.576;5.304;2023-03-12T04:57:40;8.82;99.99
66337;SHT30;53139;45.576;5.304;2023-03-12T05:00:40;8.82;99.99
66337;SHT30;53139;45.576;5.304;2023-03-12T05:03:41;8.82;99.99
66337;SHT30;53139;45.576;5.304;2023-03-12T05:06:42;8.80;99.99
66337;SHT30;53139;45.576;5.304;2023-03-12T05:09:45;8.76;99.99
66337;SHT30;53139;45.576;5.304;2023-03-12T05:12:49;8.72;99.99
66337;SHT30;53139;45.576;5.304;2023-03-12T05:15:50;8.75;99.99
66337;SHT30;53139;45.576;5.304;2023-03-12T05:18:51;8.79;99.99
66337;SHT30;53139;45.576;5.304;2023-03-12T05:21:52;8.83;99.99
66337;SHT30;53139;45.576;5.304;2023-03-12T05:24:53;8.79;99.99
66337;SHT30;53139;45.576;5.304;2023-03-12T05:27:53;8.73;99.99
66337;SHT30;53139;45.576;5.304;2023-03-12T05:30:59;8.71;99.99
66337;SHT30;53139;45.576;5.304;2023-03-12T05:34:01;8.68;99.99
66337;SHT30;53139;45.576;5.304;2023-03-12T05:37:03;8.67;99.99
66337;SHT30;53139;45.576;5.304;2023-03-12T05:40:04;8.64;99.99
66337;SHT30;53139;45.576;5.304;2023-03-12T05:43:06;8.48;99.99
66337;SHT30;53139;45.576;5.304;2023-03-12T05:46:08;8.31;99.99
66337;SHT30;53139;45.576;5.304;2023-03-12T05:49:10;8.30;99.99
66337;SHT30;53139;45.576;5.304;2023-03-12T05:52:10;8.17;99.99
66337;SHT30;53139;45.576;5.304;2023-03-12T05:55:11;8.06;99.99
66337;SHT30;53139;45.576;5.304;2023-03-12T05:58:12;8.00;99.99
66337;SHT30;53139;45.576;5.304;2023-03-12T06:01:19;8.03;99.99
66337;SHT30;53139;45.576;5.304;2023-03-12T06:04:20;7.78;99.99
66337;SHT30;53139;45.576;5.304;2023-03-12T06:07:21;7.99;99.99
66337;SHT30;53139;45.576;5.304;2023-03-12T06:10:21;8.00;99.99
66337;SHT30;53139;45.576;5.304;2023-03-12T06:13:22;8.06;99.99
66337;SHT30;53139;45.576;5.304;2023-03-12T06:16:25;8.05;99.99
66337;SHT30;53139;45.576;5.304;2023-03-12T06:19:26;8.13;99.99
66337;SHT30;53139;45.576;5.304;2023-03-12T06:22:26;8.12;99.99
66337;SHT30;53139;45.576;5.304;2023-03-12T06:25:28;8.17;99.99
66337;SHT30;53139;45.576;5.304;2023-03-12T06:28:29;8.24;99.99
66337;SHT30;53139;45.576;5.304;2023-03-12T06:31:32;8.24;99.99
66337;SHT30;53139;45.576;5.304;2023-03-12T06:34:33;8.33;99.99
66337;SHT30;53139;45.576;5.304;2023-03-12T06:37:37;8.41;99.99
66337;SHT30;53139;45.576;5.304;2023-03-12T06:40:37;8.47;99.99
66337;SHT30;53139;45.576;5.304;2023-03-12T06:43:39;8.67;99.99
66337;SHT30;53139;45.576;5.304;2023-03-12T06:46:47;8.79;99.99
66337;SHT30;53139;45.576;5.304;2023-03-12T06:49:48;8.86;99.99
66337;SHT30;53139;45.576;5.304;2023-03-12T06:52:52;8.89;99.99
66337;SHT30;53139;45.576;5.304;2023-03-12T06:55:56;8.89;99.99
66337;SHT30;53139;45.576;5.304;2023-03-12T06:58:56;8.85;99.99
66337;SHT30;53139;45.576;5.304;2023-03-12T07:01:57;8.83;99.99
66337;SHT30;53139;45.576;5.304;2023-03-12T07:04:57;9.00;99.99
66337;SHT30;53139;45.576;5.304;2023-03-12T07:07:58;8.99;99.99
66337;SHT30;53139;45.576;5.304;2023-03-12T07:10:58;9.07;99.99
66337;SHT30;53139;45.576;5.304;2023-03-12T07:13:59;9.12;99.99
66337;SHT30;53139;45.576;5.304;2023-03-12T07:17:00;9.14;99.99
66337;SHT30;53139;45.576;5.304;2023-03-12T07:20:01;9.30;99.99
66337;SHT30;53139;45.576;5.304;2023-03-12T07:23:02;9.54;99.99
66337;SHT30;53139;45.576;5.304;2023-03-12T07:26:04;9.78;99.99
66337;SHT30;53139;45.576;5.304;2023-03-12T07:29:05;9.86;99.95
66337;SHT30;53139;45.576;5.304;2023-03-12T07:32:05;9.95;99.99
66337;SHT30;53139;45.576;5.304;2023-03-12T07:35:06;9.95;99.99
66337;SHT30;53139;45.576;5.304;2023-03-12T07:38:07;10.18;99.44
66337;SHT30;53139;45.576;5.304;2023-03-12T07:41:07;10.38;99.14
66337;SHT30;53139;45.576;5.304;2023-03-12T07:44:08;10.57;99.43
66337;SHT30;53139;45.576;5.304;2023-03-12T07:47:08;10.76;98.49
66337;SHT30;53139;45.576;5.304;2023-03-12T07:50:09;10.68;97.83
66337;SHT30;53139;45.576;5.304;2023-03-12T07:53:10;10.69;97.80
66337;SHT30;53139;45.576;5.304;2023-03-12T07:56:10;10.73;97.36
66337;SHT30;53139;45.576;5.304;2023-03-12T07:59:11;10.96;96.30
66337;SHT30;53139;45.576;5.304;2023-03-12T08:02:11;11.31;95.28
66337;SHT30;53139;45.576;5.304;2023-03-12T08:05:12;11.71;95.35
66337;SHT30;53139;45.576;5.304;2023-03-12T08:08:13;11.75;96.44
66337;SHT30;53139;45.576;5.304;2023-03-12T08:11:13;11.85;96.06
66337;SHT30;53139;45.576;5.304;2023-03-12T08:14:13;11.92;95.50
66337;SHT30;53139;45.576;5.304;2023-03-12T08:17:14;12.09;95.10
66337;SHT30;53139;45.576;5.304;2023-03-12T08:20:14;12.27;93.44
66337;SHT30;53139;45.576;5.304;2023-03-12T08:23:15;12.62;93.39
66337;SHT30;53139;45.576;5.304;2023-03-12T08:26:20;12.99;92.19
66337;SHT30;53139;45.576;5.304;2023-03-12T08:29:25;12.95;92.63
66337;SHT30;53139;45.576;5.304;2023-03-12T08:32:44;12.78;94.31
66337;SHT30;53139;45.576;5.304;2023-03-12T08:36:22;12.93;85.92
66337;SHT30;53139;45.576;5.304;2023-03-12T08:39:43;12.95;86.19
66337;SHT30;53139;45.576;5.304;2023-03-12T08:42:48;12.80;85.43
66337;SHT30;53139;45.576;5.304;2023-03-12T08:45:53;12.88;85.10
66337;SHT30;53139;45.576;5.304;2023-03-12T08:48:54;12.96;84.41
66337;SHT30;53139;45.576;5.304;2023-03-12T08:51:54;12.91;84.23
66337;SHT30;53139;45.576;5.304;2023-03-12T08:54:55;12.91;84.48
66337;SHT30;53139;45.576;5.304;2023-03-12T08:57:59;12.89;83.41
66337;SHT30;53139;45.576;5.304;2023-03-12T09:00:59;12.84;85.38
66337;SHT30;53139;45.576;5.304;2023-03-12T09:04:00;12.91;87.19
66337;SHT30;53139;45.576;5.304;2023-03-12T09:07:01;12.88;89.31
66337;SHT30;53139;45.576;5.304;2023-03-12T09:10:03;12.87;88.82
66337;SHT30;53139;45.576;5.304;2023-03-12T09:13:05;12.75;87.57
66337;SHT30;53139;45.576;5.304;2023-03-12T09:16:07;12.82;90.32
66337;SHT30;53139;45.576;5.304;2023-03-12T09:19:07;12.81;91.02
66337;SHT30;53139;45.576;5.304;2023-03-12T09:22:08;12.82;90.89
66337;SHT30;53139;45.576;5.304;2023-03-12T09:25:09;12.77;89.25
66337;SHT30;53139;45.576;5.304;2023-03-12T09:28:10;12.75;88.77
66337;SHT30;53139;45.576;5.304;2023-03-12T09:31:10;12.74;87.94
66337;SHT30;53139;45.576;5.304;2023-03-12T09:34:11;12.50;86.55
66337;SHT30;53139;45.576;5.304;2023-03-12T09:37:11;12.71;88.49
66337;SHT30;53139;45.576;5.304;2023-03-12T09:40:18;12.55;87.63
66337;SHT30;53139;45.576;5.304;2023-03-12T09:43:33;12.20;89.86
66337;SHT30;53139;45.576;5.304;2023-03-12T09:46:43;11.75;91.29
66337;SHT30;53139;45.576;5.304;2023-03-12T09:49:50;11.57;92.54
66337;SHT30;53139;45.576;5.304;2023-03-12T09:53:26;11.35;94.17
66337;SHT30;53139;45.576;5.304;2023-03-12T09:56:28;11.00;95.85
66337;SHT30;53139;45.576;5.304;2023-03-12T09:59:29;10.91;95.53
66337;SHT30;53139;45.576;5.304;2023-03-12T10:06:05;10.76;96.27
66337;SHT30;53139;45.576;5.304;2023-03-12T10:23:01;11.65;91.27
66337;SHT30;53139;45.576;5.304;2023-03-12T10:26:21;11.71;91.95
66337;SHT30;53139;45.576;5.304;2023-03-12T10:29:35;12.20;91.66
66337;SHT30;53139;45.576;5.304;2023-03-12T10:32:45;12.32;90.14
66337;SHT30;53139;45.576;5.304;2023-03-12T10:35:46;12.22;88.94
66337;SHT30;53139;45.576;5.304;2023-03-12T10:38:47;12.45;88.60
66337;SHT30;53139;45.576;5.304;2023-03-12T10:41:49;12.93;88.17
66337;SHT30;53139;45.576;5.304;2023-03-12T10:44:53;13.15;87.85
66337;SHT30;53139;45.576;5.304;2023-03-12T10:48:01;13.28;84.72
66337;SHT30;53139;45.576;5.304;2023-03-12T10:51:09;13.34;86.66
66337;SHT30;53139;45.576;5.304;2023-03-12T10:54:21;13.32;85.85
66337;SHT30;53139;45.576;5.304;2023-03-12T10:57:38;13.42;86.83
66337;SHT30;53139;45.576;5.304;2023-03-12T11:00:42;14.22;80.84
66337;SHT30;53139;45.576;5.304;2023-03-12T11:07:18;14.57;81.17
66337;SHT30;53139;45.576;5.304;2023-03-12T11:10:25;14.75;75.20
66337;SHT30;53139;45.576;5.304;2023-03-12T11:13:32;15.13;78.37
66337;SHT30;53139;45.576;5.304;2023-03-12T11:16:33;14.99;76.86
66337;SHT30;53139;45.576;5.304;2023-03-12T11:19:34;15.32;78.27
66337;SHT30;53139;45.576;5.304;2023-03-12T11:22:34;15.71;76.29
66337;SHT30;53139;45.576;5.304;2023-03-12T11:25:34;14.70;71.30
66337;SHT30;53139;45.576;5.304;2023-03-12T11:28:42;15.05;76.02
66337;SHT30;53139;45.576;5.304;2023-03-12T11:38:57;15.16;73.71
66337;SHT30;53139;45.576;5.304;2023-03-12T11:48:43;15.43;71.28
66337;SHT30;53139;45.576;5.304;2023-03-12T11:52:17;15.95;73.88
66337;SHT30;53139;45.576;5.304;2023-03-12T11:55:41;16.22;71.80
66337;SHT30;53139;45.576;5.304;2023-03-12T11:59:24;18.40;71.22
66337;SHT30;53139;45.576;5.304;2023-03-12T12:02:59;17.83;70.62
66337;SHT30;53139;45.576;5.304;2023-03-12T12:09:52;16.73;67.79
66337;SHT30;53139;45.576;5.304;2023-03-12T12:17:02;18.15;71.48
66337;SHT30;53139;45.576;5.304;2023-03-12T12:23:43;16.82;65.25
66337;SHT30;53139;45.576;5.304;2023-03-12T12:33:23;19.14;65.65
66337;SHT30;53139;45.576;5.304;2023-03-12T12:36:29;20.29;60.33
66337;SHT30;53139;45.576;5.304;2023-03-12T12:39:36;18.21;62.31
66337;SHT30;53139;45.576;5.304;2023-03-12T12:46:35;18.56;61.85
66337;SHT30;53139;45.576;5.304;2023-03-12T12:49:47;19.62;57.35
66337;SHT30;53139;45.576;5.304;2023-03-12T12:52:53;18.29;60.20
66337;SHT30;53139;45.576;5.304;2023-03-12T12:56:16;21.18;61.01
66337;SHT30;53139;45.576;5.304;2023-03-12T13:02:29;21.25;61.30
66337;SHT30;53139;45.576;5.304;2023-03-12T13:11:44;22.44;57.99
66337;SHT30;53139;45.576;5.304;2023-03-12T13:14:46;21.17;54.77
66337;SHT30;53139;45.576;5.304;2023-03-12T13:27:33;20.47;56.34
66337;SHT30;53139;45.576;5.304;2023-03-12T13:33:44;21.67;56.73
66337;SHT30;53139;45.576;5.304;2023-03-12T13:36:50;22.11;54.45
66337;SHT30;53139;45.576;5.304;2023-03-12T13:39:51;19.73;59.21
66337;SHT30;53139;45.576;5.304;2023-03-12T13:49:15;18.33;62.61
66337;SHT30;53139;45.576;5.304;2023-03-12T13:52:25;17.20;66.81
66337;SHT30;53139;45.576;5.304;2023-03-12T13:55:29;17.54;64.88
66337;SHT30;53139;45.576;5.304;2023-03-12T13:58:30;17.28;65.09
66337;SHT30;53139;45.576;5.304;2023-03-12T14:01:35;18.30;61.38
66337;SHT30;53139;45.576;5.304;2023-03-12T14:04:39;19.47;60.72
66337;SHT30;53139;45.576;5.304;2023-03-12T14:11:15;21.59;54.35
66337;SHT30;53139;45.576;5.304;2023-03-12T14:17:20;20.24;57.94
66337;SHT30;53139;45.576;5.304;2023-03-12T14:20:23;18.71;57.14
66337;SHT30;53139;45.576;5.304;2023-03-12T14:23:27;19.73;61.02
66337;SHT30;53139;45.576;5.304;2023-03-12T14:26:35;18.57;57.81
66337;SHT30;53139;45.576;5.304;2023-03-12T14:29:44;19.45;61.50
66337;SHT30;53139;45.576;5.304;2023-03-12T14:32:49;20.02;57.27
66337;SHT30;53139;45.576;5.304;2023-03-12T14:35:59;20.14;59.64
66337;SHT30;53139;45.576;5.304;2023-03-12T14:39:34;19.28;54.62
66337;SHT30;53139;45.576;5.304;2023-03-12T14:42:35;19.92;53.39
66337;SHT30;53139;45.576;5.304;2023-03-12T14:45:39;19.60;53.18
66337;SHT30;53139;45.576;5.304;2023-03-12T14:48:39;19.71;53.93
66337;SHT30;53139;45.576;5.304;2023-03-12T14:51:42;21.28;53.63
66337;SHT30;53139;45.576;5.304;2023-03-12T14:54:53;20.77;54.86
66337;SHT30;53139;45.576;5.304;2023-03-12T14:58:15;20.21;54.64
66337;SHT30;53139;45.576;5.304;2023-03-12T15:01:25;19.28;55.67
66337;SHT30;53139;45.576;5.304;2023-03-12T15:04:27;18.83;57.58
66337;SHT30;53139;45.576;5.304;2023-03-12T15:07:31;18.70;53.04
66337;SHT30;53139;45.576;5.304;2023-03-12T15:10:32;18.61;59.87
66337;SHT30;53139;45.576;5.304;2023-03-12T15:13:36;18.70;59.75
66337;SHT30;53139;45.576;5.304;2023-03-12T15:16:37;18.04;54.84
66337;SHT30;53139;45.576;5.304;2023-03-12T15:19:38;17.84;55.61
66337;SHT30;53139;45.576;5.304;2023-03-12T15:22:40;18.39;55.74
66337;SHT30;53139;45.576;5.304;2023-03-12T15:25:41;18.64;55.34
66337;SHT30;53139;45.576;5.304;2023-03-12T15:28:42;18.87;56.28
66337;SHT30;53139;45.576;5.304;2023-03-12T15:31:47;19.55;53.00
66337;SHT30;53139;45.576;5.304;2023-03-12T15:34:48;19.52;53.35
66337;SHT30;53139;45.576;5.304;2023-03-12T15:37:49;19.26;52.94
66337;SHT30;53139;45.576;5.304;2023-03-12T15:40:53;18.78;53.28
66337;SHT30;53139;45.576;5.304;2023-03-12T15:43:57;19.46;53.87
66337;SHT30;53139;45.576;5.304;2023-03-12T15:47:09;20.15;59.21
66337;SHT30;53139;45.576;5.304;2023-03-12T15:50:32;20.04;57.73
66337;SHT30;53139;45.576;5.304;2023-03-12T15:53:34;19.52;56.23
66337;SHT30;53139;45.576;5.304;2023-03-12T15:56:34;19.63;56.05
66337;SHT30;53139;45.576;5.304;2023-03-12T15:59:35;19.07;57.05
66337;SHT30;53139;45.576;5.304;2023-03-12T16:05:47;18.11;57.53
66337;SHT30;53139;45.576;5.304;2023-03-12T16:08:59;17.62;64.90
66337;SHT30;53139;45.576;5.304;2023-03-12T16:12:02;16.98;62.91
66337;SHT30;53139;45.576;5.304;2023-03-12T16:15:03;16.82;59.35
66337;SHT30;53139;45.576;5.304;2023-03-12T16:18:04;16.20;58.14
66337;SHT30;53139;45.576;5.304;2023-03-12T16:21:05;16.61;60.50
66337;SHT30;53139;45.576;5.304;2023-03-12T16:24:05;17.74;66.88
66337;SHT30;53139;45.576;5.304;2023-03-12T16:27:12;18.39;65.22
66337;SHT30;53139;45.576;5.304;2023-03-12T16:30:25;17.74;68.74
66337;SHT30;53139;45.576;5.304;2023-03-12T16:33:26;17.75;65.94
66337;SHT30;53139;45.576;5.304;2023-03-12T16:36:26;18.94;61.89
66337;SHT30;53139;45.576;5.304;2023-03-12T16:39:27;18.84;59.57
66337;SHT30;53139;45.576;5.304;2023-03-12T16:42:32;18.02;60.63
66337;SHT30;53139;45.576;5.304;2023-03-12T16:45:35;18.12;61.54
66337;SHT30;53139;45.576;5.304;2023-03-12T16:48:36;16.70;60.81
66337;SHT30;53139;45.576;5.304;2023-03-12T16:51:36;16.40;63.66
66337;SHT30;53139;45.576;5.304;2023-03-12T16:54:36;16.05;63.92
66337;SHT30;53139;45.576;5.304;2023-03-12T16:57:39;15.84;66.34
66337;SHT30;53139;45.576;5.304;2023-03-12T17:00:41;15.42;66.99
66337;SHT30;53139;45.576;5.304;2023-03-12T17:03:43;15.25;68.20
66337;SHT30;53139;45.576;5.304;2023-03-12T17:06:44;15.12;68.13
66337;SHT30;53139;45.576;5.304;2023-03-12T17:09:45;14.93;68.02
66337;SHT30;53139;45.576;5.304;2023-03-12T17:12:46;14.81;72.90
66337;SHT30;53139;45.576;5.304;2023-03-12T17:15:46;14.57;72.50
66337;SHT30;53139;45.576;5.304;2023-03-12T17:18:47;14.59;68.84
66337;SHT30;53139;45.576;5.304;2023-03-12T17:21:48;14.37;67.82
66337;SHT30;53139;45.576;5.304;2023-03-12T17:24:49;14.16;70.23
66337;SHT30;53139;45.576;5.304;2023-03-12T17:27:49;13.86;69.61
66337;SHT30;53139;45.576;5.304;2023-03-12T17:30:50;13.82;68.84
66337;SHT30;53139;45.576;5.304;2023-03-12T17:33:50;13.58;74.53
66337;SHT30;53139;45.576;5.304;2023-03-12T17:36:51;13.33;74.81
66337;SHT30;53139;45.576;5.304;2023-03-12T17:39:51;13.05;75.67
66337;SHT30;53139;45.576;5.304;2023-03-12T17:42:52;12.84;75.37
66337;SHT30;53139;45.576;5.304;2023-03-12T17:45:52;12.75;76.33
66337;SHT30;53139;45.576;5.304;2023-03-12T17:48:53;12.37;76.64
66337;SHT30;53139;45.576;5.304;2023-03-12T17:51:54;11.72;81.93
66337;SHT30;53139;45.576;5.304;2023-03-12T17:54:54;11.70;84.22
66337;SHT30;53139;45.576;5.304;2023-03-12T17:57:54;11.51;82.51
66337;SHT30;53139;45.576;5.304;2023-03-12T18:00:57;11.23;85.91
66337;SHT30;53139;45.576;5.304;2023-03-12T18:03:58;10.62;85.12
66337;SHT30;53139;45.576;5.304;2023-03-12T18:06:58;10.71;85.24
66337;SHT30;53139;45.576;5.304;2023-03-12T18:09:59;10.47;86.12
66337;SHT30;53139;45.576;5.304;2023-03-12T18:13:00;10.64;85.38
66337;SHT30;53139;45.576;5.304;2023-03-12T18:16:00;10.54;86.83
66337;SHT30;53139;45.576;5.304;2023-03-12T18:19:01;10.69;86.52
66337;SHT30;53139;45.576;5.304;2023-03-12T18:22:01;10.68;85.40
66337;SHT30;53139;45.576;5.304;2023-03-12T18:25:02;10.81;85.42
66337;SHT30;53139;45.576;5.304;2023-03-12T18:28:02;10.73;85.48
66337;SHT30;53139;45.576;5.304;2023-03-12T18:31:03;10.67;85.29
66337;SHT30;53139;45.576;5.304;2023-03-12T18:34:03;10.69;85.56
66337;SHT30;53139;45.576;5.304;2023-03-12T18:37:04;10.68;85.67
66337;SHT30;53139;45.576;5.304;2023-03-12T18:40:04;10.76;85.24
66337;SHT30;53139;45.576;5.304;2023-03-12T18:43:07;10.79;85.12
66337;SHT30;53139;45.576;5.304;2023-03-12T18:46:07;10.65;85.33
66337;SHT30;53139;45.576;5.304;2023-03-12T18:49:08;10.75;86.20
66337;SHT30;53139;45.576;5.304;2023-03-12T18:52:09;10.58;86.38
66337;SHT30;53139;45.576;5.304;2023-03-12T18:55:09;10.48;87.01
66337;SHT30;53139;45.576;5.304;2023-03-12T18:58:14;10.32;87.01
66337;SHT30;53139;45.576;5.304;2023-03-12T19:01:14;10.26;87.62
66337;SHT30;53139;45.576;5.304;2023-03-12T19:04:17;10.18;87.56
66337;SHT30;53139;45.576;5.304;2023-03-12T19:07:17;10.00;87.96
66337;SHT30;53139;45.576;5.304;2023-03-12T19:10:18;10.02;88.10
66337;SHT30;53139;45.576;5.304;2023-03-12T19:13:19;9.99;87.99
66337;SHT30;53139;45.576;5.304;2023-03-12T19:16:20;9.92;88.57
66337;SHT30;53139;45.576;5.304;2023-03-12T19:19:23;9.71;88.87
66337;SHT30;53139;45.576;5.304;2023-03-12T19:22:23;9.72;88.69
66337;SHT30;53139;45.576;5.304;2023-03-12T19:25:24;9.44;89.48
66337;SHT30;53139;45.576;5.304;2023-03-12T19:28:24;9.22;91.11
66337;SHT30;53139;45.576;5.304;2023-03-12T19:31:25;9.13;89.90
66337;SHT30;53139;45.576;5.304;2023-03-12T19:34:25;8.69;90.75
66337;SHT30;53139;45.576;5.304;2023-03-12T19:37:26;8.85;92.00
66337;SHT30;53139;45.576;5.304;2023-03-12T19:40:26;8.71;91.99
66337;SHT30;53139;45.576;5.304;2023-03-12T19:43:26;8.71;92.04
66337;SHT30;53139;45.576;5.304;2023-03-12T19:46:27;8.57;91.72
66337;SHT30;53139;45.576;5.304;2023-03-12T19:49:27;8.54;92.05
66337;SHT30;53139;45.576;5.304;2023-03-12T19:52:28;8.54;92.51
66337;SHT30;53139;45.576;5.304;2023-03-12T19:55:29;8.57;92.28
66337;SHT30;53139;45.576;5.304;2023-03-12T19:58:30;8.65;91.85
66337;SHT30;53139;45.576;5.304;2023-03-12T20:01:30;8.68;91.78
66337;SHT30;53139;45.576;5.304;2023-03-12T20:04:31;8.73;91.63
66337;SHT30;53139;45.576;5.304;2023-03-12T20:07:31;8.68;92.64
66337;SHT30;53139;45.576;5.304;2023-03-12T20:10:32;8.55;92.17
66337;SHT30;53139;45.576;5.304;2023-03-12T20:13:33;8.19;92.57
66337;SHT30;53139;45.576;5.304;2023-03-12T20:16:34;8.29;93.30
66337;SHT30;53139;45.576;5.304;2023-03-12T20:19:35;8.34;92.71
66337;SHT30;53139;45.576;5.304;2023-03-12T20:22:35;8.34;92.17
66337;SHT30;53139;45.576;5.304;2023-03-12T20:25:40;8.44;92.53
66337;SHT30;53139;45.576;5.304;2023-03-12T20:28:41;8.24;92.39
66337;SHT30;53139;45.576;5.304;2023-03-12T20:31:41;8.20;92.99
66337;SHT30;53139;45.576;5.304;2023-03-12T20:34:42;8.30;92.78
66337;SHT30;53139;45.576;5.304;2023-03-12T20:37:42;8.22;92.43
66337;SHT30;53139;45.576;5.304;2023-03-12T20:40:44;8.30;92.49
66337;SHT30;53139;45.576;5.304;2023-03-12T20:43:45;8.37;91.98
66337;SHT30;53139;45.576;5.304;2023-03-12T20:46:46;8.44;91.76
66337;SHT30;53139;45.576;5.304;2023-03-12T20:49:46;8.47;91.52
66337;SHT30;53139;45.576;5.304;2023-03-12T20:52:47;8.33;92.31
66337;SHT30;53139;45.576;5.304;2023-03-12T20:55:47;8.36;92.52
66337;SHT30;53139;45.576;5.304;2023-03-12T20:58:47;8.30;92.66
66337;SHT30;53139;45.576;5.304;2023-03-12T21:01:48;8.24;92.83
66337;SHT30;53139;45.576;5.304;2023-03-12T21:04:48;8.23;93.08
66337;SHT30;53139;45.576;5.304;2023-03-12T21:07:52;8.30;92.48
66337;SHT30;53139;45.576;5.304;2023-03-12T21:10:53;8.19;92.98
66337;SHT30;53139;45.576;5.304;2023-03-12T21:13:54;8.12;93.02
66337;SHT30;53139;45.576;5.304;2023-03-12T21:16:54;8.07;93.12
66337;SHT30;53139;45.576;5.304;2023-03-12T21:19:56;8.02;92.88
66337;SHT30;53139;45.576;5.304;2023-03-12T21:22:57;8.14;92.62
66337;SHT30;53139;45.576;5.304;2023-03-12T21:25:59;8.16;92.50
66337;SHT30;53139;45.576;5.304;2023-03-12T21:29:00;8.17;92.57
66337;SHT30;53139;45.576;5.304;2023-03-12T21:32:01;8.20;92.49